createdAt,value
2023-04-07T00:00:57.766Z,98944.91
2023-04-07T00:04:00.186Z,98945.06
2023-04-07T00:07:02.653Z,98939.53
2023-04-07T00:10:05.624Z,98941.50
2023-04-07T00:13:07.811Z,98939.19
2023-04-07T00:16:10.179Z,98945.72
2023-04-07T00:19:12.423Z,98934.59
2023-04-07T00:22:14.650Z,98934.59
2023-04-07T00:25:16.936Z,98935.59
2023-04-07T00:28:19.150Z,98941.00
2023-04-07T00:31:21.591Z,98940.19
2023-04-07T00:34:23.792Z,98928.88
2023-04-07T00:37:26.119Z,98931.00
2023-04-07T00:40:28.431Z,98932.97
2023-04-07T00:43:30.583Z,98924.78
2023-04-07T00:46:32.821Z,98923.44
2023-04-07T00:49:35.148Z,98921.66
2023-04-07T00:52:37.347Z,98926.25
2023-04-07T00:55:39.544Z,98923.28
2023-04-07T00:58:41.800Z,98919.69
2023-04-07T01:02:04.487Z,98923.94
2023-04-07T01:06:01.773Z,98919.34
2023-04-07T01:09:06.183Z,98915.22
2023-04-07T01:12:34.205Z,98914.09
2023-04-07T01:15:37.182Z,98909.03
2023-04-07T01:18:39.775Z,98901.16
2023-04-07T01:21:44.575Z,98902.47
2023-04-07T01:25:09.825Z,98901.13
2023-04-07T01:28:40.478Z,98894.91
2023-04-07T01:31:43.501Z,98895.59
2023-04-07T01:34:48.120Z,98900.97
2023-04-07T01:37:51.359Z,98895.41
2023-04-07T01:40:54.107Z,98892.31
2023-04-07T01:43:56.779Z,98888.87
2023-04-07T01:46:59.847Z,98884.12
2023-04-07T01:50:05.389Z,98890.19
2023-04-07T01:53:07.903Z,98889.84
2023-04-07T01:56:10.855Z,98891.78
2023-04-07T01:59:13.087Z,98888.34
2023-04-07T02:02:15.504Z,98894.56
2023-04-07T02:05:19.554Z,98889.81
2023-04-07T02:08:22.038Z,98894.91
2023-04-07T02:11:25.605Z,98889.66
2023-04-07T02:14:28.289Z,98890.31
2023-04-07T02:17:31.831Z,98885.25
2023-04-07T02:20:35.568Z,98888.50
2023-04-07T02:23:37.907Z,98880.16
2023-04-07T02:26:40.961Z,98884.12
2023-04-07T02:29:43.133Z,98882.47
2023-04-07T02:32:45.941Z,98876.91
2023-04-07T02:35:48.188Z,98879.69
2023-04-07T02:38:50.476Z,98880.19
2023-04-07T02:41:52.686Z,98880.19
2023-04-07T02:44:54.863Z,98882.47
2023-04-07T02:47:57.144Z,98878.34
2023-04-07T02:50:59.425Z,98880.47
2023-04-07T02:54:01.616Z,98879.16
2023-04-07T02:57:03.902Z,98876.72
2023-04-07T03:00:06.758Z,98880.69
2023-04-07T03:03:09.184Z,98880.34
2023-04-07T03:06:11.517Z,98877.06
2023-04-07T03:09:14.132Z,98884.09
2023-04-07T03:12:16.353Z,98881.50
2023-04-07T03:15:18.955Z,98882.13
2023-04-07T03:18:21.265Z,98887.72
2023-04-07T03:21:23.612Z,98884.09
2023-04-07T03:24:26.076Z,98887.06
2023-04-07T03:27:28.319Z,98884.12
2023-04-07T03:30:30.528Z,98891.16
2023-04-07T03:33:32.689Z,98883.78
2023-04-07T03:36:34.893Z,98893.91
2023-04-07T03:39:37.533Z,98899.50
2023-04-07T03:42:39.772Z,98891.28
2023-04-07T03:45:42.635Z,98887.22
2023-04-07T03:48:44.883Z,98884.12
2023-04-07T03:51:47.069Z,98889.50
2023-04-07T03:54:49.243Z,98887.69
2023-04-07T03:57:51.498Z,98891.16
2023-04-07T04:00:53.740Z,98897.22
2023-04-07T04:03:56.246Z,98902.16
2023-04-07T04:06:58.709Z,98900.81
2023-04-07T04:10:01.071Z,98907.72
2023-04-07T04:13:06.683Z,98901.47
2023-04-07T04:16:09.116Z,98902.47
2023-04-07T04:19:11.409Z,98908.38
2023-04-07T04:22:13.958Z,98898.84
2023-04-07T04:25:17.100Z,98907.72
2023-04-07T04:28:19.251Z,98918.03
2023-04-07T04:31:21.805Z,98922.12
2023-04-07T04:34:24.049Z,98911.31
2023-04-07T04:37:26.669Z,98917.75
2023-04-07T04:40:28.853Z,98913.63
2023-04-07T04:43:31.075Z,98924.13
2023-04-07T04:46:33.462Z,98926.41
2023-04-07T04:49:36.144Z,98934.44
2023-04-07T04:52:39.545Z,98935.41
2023-04-07T04:55:44.141Z,98928.38
2023-04-07T04:58:46.645Z,98930.53
2023-04-07T05:01:49.049Z,98933.16
2023-04-07T05:04:51.342Z,98932.66
2023-04-07T05:07:53.590Z,98933.31
2023-04-07T05:10:55.961Z,98937.06
2023-04-07T05:13:58.146Z,98939.81
2023-04-07T05:17:00.919Z,98944.25
2023-04-07T05:20:04.526Z,98941.63
2023-04-07T05:23:06.956Z,98946.09
2023-04-07T05:26:09.250Z,98947.91
2023-04-07T05:29:11.477Z,98955.13
2023-04-07T05:32:13.739Z,98947.91
2023-04-07T05:35:16.164Z,98961.31
2023-04-07T05:38:18.386Z,98961.16
2023-04-07T05:41:20.554Z,98969.03
2023-04-07T05:44:22.715Z,98963.16
2023-04-07T05:47:24.974Z,98960.50
2023-04-07T05:50:27.288Z,98963.13
2023-04-07T05:53:29.467Z,98966.22
2023-04-07T05:56:31.714Z,98973.78
2023-04-07T05:59:34.791Z,98969.38
2023-04-07T06:02:37.219Z,98971.84
2023-04-07T06:05:43.527Z,98973.44
2023-04-07T06:08:46.176Z,98974.75
2023-04-07T06:11:48.384Z,98974.28
2023-04-07T06:14:55.522Z,98975.88
2023-04-07T06:17:57.761Z,98974.09
2023-04-07T06:21:00.066Z,98968.06
2023-04-07T06:24:02.276Z,98980.72
2023-04-07T06:27:04.469Z,98980.06
2023-04-07T06:30:07.441Z,98979.84
2023-04-07T06:33:09.669Z,98978.75
2023-04-07T06:36:12.049Z,98974.56
2023-04-07T06:39:14.663Z,98987.50
2023-04-07T06:42:16.842Z,98982.97
2023-04-07T06:45:18.981Z,98982.16
2023-04-07T06:48:21.228Z,98983.62
2023-04-07T06:51:23.417Z,98995.22
2023-04-07T06:54:25.789Z,98996.84
2023-04-07T06:57:27.975Z,98995.91
2023-04-07T07:00:31.097Z,99002.81
2023-04-07T07:03:33.870Z,99008.69
2023-04-07T07:06:36.367Z,99013.81
2023-04-07T07:09:38.564Z,99020.13
2023-04-07T07:12:40.853Z,99012.50
2023-04-07T07:15:43.093Z,99024.28
2023-04-07T07:18:45.376Z,99024.13
2023-04-07T07:21:49.157Z,99030.38
2023-04-07T07:24:51.400Z,99034.66
2023-04-07T07:27:56.182Z,99027.63
2023-04-07T07:30:58.367Z,99036.34
2023-04-07T07:34:00.876Z,99035.16
2023-04-07T07:37:03.070Z,99046.81
2023-04-07T07:40:05.620Z,99046.97
2023-04-07T07:43:07.808Z,99048.06
2023-04-07T07:46:09.996Z,99047.78
2023-04-07T07:49:12.195Z,99045.16
2023-04-07T07:52:14.511Z,99046.25
2023-04-07T07:55:16.782Z,99059.94
2023-04-07T07:58:19.006Z,99059.81
2023-04-07T08:01:21.472Z,99057.16
2023-04-07T08:04:24.089Z,99059.81
2023-04-07T08:07:27.418Z,99066.88
2023-04-07T08:10:29.695Z,99065.22
2023-04-07T08:13:31.921Z,99065.38
2023-04-07T08:16:34.154Z,99071.44
2023-04-07T08:19:36.626Z,99078.34
2023-04-07T08:22:38.795Z,99079.50
2023-04-07T08:25:41.064Z,99069.47
2023-04-07T08:28:43.223Z,99073.91
2023-04-07T08:31:45.444Z,99080.16
2023-04-07T08:34:47.701Z,99078.84
2023-04-07T08:37:50.393Z,99082.62
2023-04-07T08:41:03.298Z,99078.00
2023-04-07T08:44:07.364Z,99081.31
2023-04-07T08:47:11.621Z,99092.31
2023-04-07T08:50:17.587Z,99092.00
2023-04-07T08:53:34.647Z,99089.22
2023-04-07T08:56:40.797Z,99092.47
2023-04-07T08:59:45.332Z,99094.63
2023-04-07T09:02:49.410Z,99090.50
2023-04-07T09:05:52.095Z,99083.09
2023-04-07T09:08:55.293Z,99092.97
2023-04-07T09:11:58.838Z,99084.56
2023-04-07T09:15:01.423Z,99086.06
2023-04-07T09:18:03.971Z,99085.56
2023-04-07T09:21:07.845Z,99082.94
2023-04-07T09:24:24.691Z,99088.72
2023-04-07T09:27:27.094Z,99087.69
2023-04-07T09:30:30.879Z,99081.88
2023-04-07T09:33:34.322Z,99088.63
2023-04-07T09:36:42.350Z,99091.72
2023-04-07T09:39:52.244Z,99099.47
2023-04-07T09:42:54.737Z,99094.06
2023-04-07T09:46:14.018Z,99092.72
2023-04-07T09:49:16.714Z,99095.38
2023-04-07T09:52:20.676Z,99096.41
2023-04-07T09:55:23.915Z,99092.53
2023-04-07T09:58:26.169Z,99096.25
2023-04-07T10:01:28.667Z,99100.00
2023-04-07T10:04:31.357Z,99100.06
2023-04-07T10:07:33.701Z,99107.94
2023-04-07T10:10:37.084Z,99103.34
2023-04-07T10:13:40.842Z,99108.87
2023-04-07T10:16:43.554Z,99102.34
2023-04-07T10:19:46.932Z,99104.63
2023-04-07T10:22:51.403Z,99107.22
2023-04-07T10:25:55.098Z,99104.44
2023-04-07T10:29:03.012Z,99103.22
2023-04-07T10:32:05.297Z,99102.13
2023-04-07T10:35:07.836Z,99100.16
2023-04-07T10:38:13.671Z,99102.53
2023-04-07T10:41:40.059Z,99101.31
2023-04-07T10:44:42.154Z,99107.19
2023-04-07T10:47:59.760Z,99112.00
2023-04-07T10:51:22.222Z,99114.41
2023-04-07T10:54:29.015Z,99104.34
2023-04-07T10:57:31.673Z,99115.41
2023-04-07T11:00:33.881Z,99117.28
2023-04-07T11:03:38.271Z,99118.94
2023-04-07T11:06:48.068Z,99120.22
2023-04-07T11:09:50.502Z,99124.25
2023-04-07T11:13:07.031Z,99125.09
2023-04-07T11:16:10.182Z,99114.38
2023-04-07T11:19:12.369Z,99120.88
2023-04-07T11:22:28.601Z,99129.22
2023-04-07T11:25:33.323Z,99132.66
2023-04-07T11:28:37.898Z,99123.69
2023-04-07T11:31:40.343Z,99124.16
2023-04-07T11:34:43.115Z,99126.47
2023-04-07T11:37:45.710Z,99122.31
2023-04-07T11:40:47.991Z,99116.69
2023-04-07T11:43:51.258Z,99122.03
2023-04-07T11:46:58.558Z,99118.03
2023-04-07T11:50:01.157Z,99114.22
2023-04-07T11:53:03.462Z,99118.06
2023-04-07T11:56:09.956Z,99114.34
2023-04-07T11:59:38.435Z,99112.16
2023-04-07T12:02:41.180Z,99114.94
2023-04-07T12:05:44.829Z,99118.63
2023-04-07T12:08:47.002Z,99119.72
2023-04-07T12:11:50.338Z,99125.53
2023-04-07T12:14:52.764Z,99124.44
2023-04-07T12:17:55.608Z,99116.69
2023-04-07T12:20:59.084Z,99113.56
2023-04-07T12:24:02.588Z,99116.78
2023-04-07T12:27:04.833Z,99114.25
2023-04-07T12:30:07.798Z,99105.41
2023-04-07T12:33:10.118Z,99110.78
2023-04-07T12:36:12.690Z,99106.41
2023-04-07T12:39:15.578Z,99110.25
2023-04-07T12:42:17.801Z,99114.97
2023-04-07T12:45:19.998Z,99114.81
2023-04-07T12:48:22.321Z,99119.25
2023-04-07T12:51:24.526Z,99121.44
2023-04-07T12:54:26.760Z,99121.72
2023-04-07T12:57:28.933Z,99120.44
2023-04-07T13:00:31.649Z,99115.72
2023-04-07T13:03:34.372Z,99114.16
2023-04-07T13:06:37.214Z,99119.16
2023-04-07T13:09:43.380Z,99129.75
2023-04-07T13:12:45.729Z,99126.16
2023-04-07T13:15:47.960Z,99124.72
2023-04-07T13:18:52.839Z,99119.97
2023-04-07T13:21:55.113Z,99119.50
2023-04-07T13:24:57.368Z,99130.06
2023-04-07T13:27:59.820Z,99135.25
2023-04-07T13:31:02.062Z,99134.34
2023-04-07T13:34:04.377Z,99131.34
2023-04-07T13:37:06.678Z,99126.91
2023-04-07T13:40:09.413Z,99129.00
2023-04-07T13:43:12.726Z,99128.81
2023-04-07T13:46:27.800Z,99126.00
2023-04-07T13:49:30.874Z,99127.44
2023-04-07T13:52:35.379Z,99124.81
2023-04-07T13:55:38.626Z,99124.91
2023-04-07T13:58:40.794Z,99126.25
2023-04-07T14:01:43.178Z,99129.47
2023-04-07T14:04:45.803Z,99122.81
2023-04-07T14:07:48.240Z,99129.53
2023-04-07T14:10:50.848Z,99130.00
2023-04-07T14:13:53.168Z,99133.81
2023-04-07T14:16:55.390Z,99131.53
2023-04-07T14:19:57.923Z,99132.91
2023-04-07T14:23:00.108Z,99134.00
2023-04-07T14:26:02.290Z,99127.62
2023-04-07T14:29:04.486Z,99132.66
2023-04-07T14:32:06.776Z,99137.28
2023-04-07T14:35:09.697Z,99135.97
2023-04-07T14:38:11.904Z,99138.09
2023-04-07T14:41:14.078Z,99137.81
2023-04-07T14:44:16.772Z,99139.09
2023-04-07T14:47:19.015Z,99139.56
2023-04-07T14:50:21.537Z,99144.56
2023-04-07T14:53:23.808Z,99144.47
2023-04-07T14:56:25.994Z,99140.47
2023-04-07T14:59:28.272Z,99145.63
2023-04-07T15:02:32.684Z,99144.72
2023-04-07T15:05:36.099Z,99147.69
2023-04-07T15:08:38.595Z,99145.09
2023-04-07T15:11:40.817Z,99149.72
2023-04-07T15:14:44.664Z,99152.34
2023-04-07T15:17:46.940Z,99147.09
2023-04-07T15:20:49.173Z,99151.62
2023-04-07T15:23:51.631Z,99152.00
2023-04-07T15:26:53.940Z,99150.03
2023-04-07T15:29:56.172Z,99145.38
2023-04-07T15:33:00.459Z,99148.28
2023-04-07T15:36:03.487Z,99145.75
2023-04-07T15:39:09.139Z,99149.91
2023-04-07T15:42:12.622Z,99155.13
2023-04-07T15:45:15.414Z,99159.91
2023-04-07T15:48:18.074Z,99158.44
2023-04-07T15:51:20.387Z,99166.41
2023-04-07T15:54:22.614Z,99162.56
2023-04-07T15:57:24.780Z,99167.47
2023-04-07T16:00:28.074Z,99165.94
2023-04-07T16:03:32.114Z,99164.72
2023-04-07T16:06:34.398Z,99161.09
2023-04-07T16:09:36.557Z,99165.34
2023-04-07T16:12:39.686Z,99170.28
2023-04-07T16:15:42.369Z,99172.44
2023-04-07T16:18:45.043Z,99172.03
2023-04-07T16:21:47.300Z,99169.34
2023-04-07T16:24:49.453Z,99173.78
2023-04-07T16:27:54.684Z,99180.72
2023-04-07T16:30:56.852Z,99180.78
2023-04-07T16:33:59.008Z,99186.16
2023-04-07T16:37:01.376Z,99186.63
2023-04-07T16:40:04.749Z,99186.03
2023-04-07T16:43:09.017Z,99191.66
2023-04-07T16:46:11.321Z,99199.03
2023-04-07T16:49:13.610Z,99196.06
2023-04-07T16:52:16.025Z,99197.28
2023-04-07T16:55:18.251Z,99204.19
2023-04-07T16:58:20.592Z,99202.88
2023-04-07T17:01:22.965Z,99203.59
2023-04-07T17:04:25.232Z,99199.66
2023-04-07T17:07:27.686Z,99197.72
2023-04-07T17:10:29.900Z,99204.47
2023-04-07T17:13:32.229Z,99204.75
2023-04-07T17:16:34.395Z,99205.12
2023-04-07T17:19:36.753Z,99209.09
2023-04-07T17:22:39.013Z,99205.12
2023-04-07T17:25:41.234Z,99216.00
2023-04-07T17:28:44.430Z,99215.72
2023-04-07T17:31:49.783Z,99215.56
2023-04-07T17:34:52.067Z,99217.81
2023-04-07T17:37:56.402Z,99228.50
2023-04-07T17:40:59.611Z,99235.91
2023-04-07T17:44:02.333Z,99238.94
2023-04-07T17:47:04.556Z,99236.44
2023-04-07T17:50:08.709Z,99240.75
2023-04-07T17:53:10.949Z,99238.09
2023-04-07T17:56:13.732Z,99245.16
2023-04-07T17:59:16.171Z,99251.78
2023-04-07T18:02:18.522Z,99263.78
2023-04-07T18:05:21.052Z,99268.87
2023-04-07T18:08:23.319Z,99273.16
2023-04-07T18:11:26.314Z,99274.47
2023-04-07T18:14:28.820Z,99275.00
2023-04-07T18:17:31.046Z,99279.13
2023-04-07T18:20:33.894Z,99287.69
2023-04-07T18:23:36.057Z,99292.78
2023-04-07T18:26:38.248Z,99297.19
2023-04-07T18:29:40.412Z,99287.84
2023-04-07T18:32:43.943Z,99297.38
2023-04-07T18:35:46.437Z,99307.06
2023-04-07T18:38:52.931Z,99311.84
2023-04-07T18:41:57.367Z,99305.75
2023-04-07T18:44:59.721Z,99304.44
2023-04-07T18:48:02.029Z,99301.16
2023-04-07T18:51:04.281Z,99308.88
2023-04-07T18:54:06.673Z,99307.56
2023-04-07T18:57:08.910Z,99316.13
2023-04-07T19:00:11.849Z,99319.91
2023-04-07T19:03:14.259Z,99326.97
2023-04-07T19:06:16.918Z,99323.19
2023-04-07T19:09:19.137Z,99321.88
2023-04-07T19:12:21.474Z,99327.12
2023-04-07T19:15:23.688Z,99324.50
2023-04-07T19:18:28.190Z,99325.94
2023-04-07T19:21:31.107Z,99331.25
2023-04-07T19:24:34.134Z,99334.38
2023-04-07T19:27:39.559Z,99327.47
2023-04-07T19:30:41.798Z,99329.94
2023-04-07T19:33:44.041Z,99333.38
2023-04-07T19:36:46.353Z,99331.72
2023-04-07T19:40:01.736Z,99330.06
2023-04-07T19:43:05.596Z,99335.66
2023-04-07T19:46:08.877Z,99329.22
2023-04-07T19:49:11.473Z,99338.75
2023-04-07T19:52:13.767Z,99332.34
2023-04-07T19:55:16.325Z,99326.59
2023-04-07T19:58:20.992Z,99335.31
2023-04-07T20:01:23.368Z,99337.94
2023-04-07T20:04:25.586Z,99336.63
2023-04-07T20:07:27.828Z,99345.50
2023-04-07T20:10:30.040Z,99339.09
2023-04-07T20:13:34.864Z,99345.81
2023-04-07T20:16:40.102Z,99349.09
2023-04-07T20:19:42.506Z,99340.56
2023-04-07T20:22:45.230Z,99339.41
2023-04-07T20:25:47.506Z,99341.72
2023-04-07T20:28:49.878Z,99341.38
2023-04-07T20:31:52.232Z,99341.88
2023-04-07T20:34:55.120Z,99338.59
2023-04-07T20:37:57.333Z,99341.31
2023-04-07T20:40:59.522Z,99335.56
2023-04-07T20:44:01.748Z,99334.56
2023-04-07T20:47:10.930Z,99333.25
2023-04-07T20:50:13.152Z,99333.03
2023-04-07T20:53:15.714Z,99335.22
2023-04-07T20:56:18.530Z,99340.16
2023-04-07T20:59:20.720Z,99340.25
2023-04-07T21:02:23.011Z,99339.84
2023-04-07T21:05:25.458Z,99339.44
2023-04-07T21:08:27.892Z,99344.53
2023-04-07T21:11:30.371Z,99351.59
2023-04-07T21:14:32.588Z,99349.66
2023-04-07T21:17:34.885Z,99343.44
2023-04-07T21:20:37.696Z,99336.97
2023-04-07T21:23:40.842Z,99347.44
2023-04-07T21:26:43.027Z,99352.53
2023-04-07T21:29:45.414Z,99346.97
2023-04-07T21:32:47.669Z,99357.66
2023-04-07T21:35:51.007Z,99352.28
2023-04-07T21:38:53.862Z,99354.84
2023-04-07T21:41:57.327Z,99352.87
2023-04-07T21:44:59.613Z,99359.09
2023-04-07T21:48:02.280Z,99346.78
2023-04-07T21:51:04.488Z,99346.25
2023-04-07T21:54:07.425Z,99350.94
2023-04-07T21:57:09.619Z,99357.62
2023-04-07T22:00:12.768Z,99353.16
2023-04-07T22:03:15.107Z,99359.91
2023-04-07T22:06:17.481Z,99359.91
2023-04-07T22:09:19.732Z,99356.16
2023-04-07T22:12:21.909Z,99360.47
2023-04-07T22:15:24.085Z,99360.94
2023-04-07T22:18:26.510Z,99362.28
2023-04-07T22:21:28.688Z,99362.84
2023-04-07T22:24:30.931Z,99360.25
2023-04-07T22:27:33.203Z,99366.34
2023-04-07T22:30:35.422Z,99364.66
2023-04-07T22:33:37.830Z,99369.28
2023-04-07T22:36:40.033Z,99368.81
2023-04-07T22:39:42.377Z,99373.91
2023-04-07T22:42:44.683Z,99378.69
2023-04-07T22:45:46.800Z,99375.50
2023-04-07T22:48:49.179Z,99372.41
2023-04-07T22:51:51.653Z,99378.88
2023-04-07T22:54:53.945Z,99384.88
2023-04-07T22:57:56.146Z,99376.72
2023-04-07T23:00:58.443Z,99377.72
2023-04-07T23:04:00.970Z,99379.62
2023-04-07T23:07:03.174Z,99382.34
2023-04-07T23:10:07.776Z,99379.69
2023-04-07T23:13:09.963Z,99376.03
2023-04-07T23:16:13.222Z,99372.28
2023-04-07T23:19:15.910Z,99378.22
2023-04-07T23:22:18.135Z,99374.09
2023-04-07T23:25:21.166Z,99375.91
2023-04-07T23:28:23.420Z,99380.19
2023-04-07T23:31:25.682Z,99375.16
2023-04-07T23:34:28.365Z,99377.16
2023-04-07T23:37:30.804Z,99380.91
2023-04-07T23:40:32.975Z,99383.69
2023-04-07T23:43:35.807Z,99378.50
2023-04-07T23:46:38.412Z,99391.53
2023-04-07T23:49:40.582Z,99394.75
2023-04-07T23:52:44.088Z,99381.47
2023-04-07T23:55:46.351Z,99383.28
2023-04-07T23:58:48.856Z,99383.41
